createdAt,value
2022-11-13T00:05:15.611Z,5.76
2022-11-13T00:10:35.971Z,5.85
2022-11-13T00:16:02.489Z,5.76
2022-11-13T00:21:25.190Z,5.75
2022-11-13T00:26:45.246Z,5.82
2022-11-13T00:32:06.199Z,5.87
2022-11-13T00:37:26.369Z,5.82
2022-11-13T00:42:46.819Z,5.81
2022-11-13T00:48:07.069Z,5.83
2022-11-13T00:53:27.762Z,5.89
2022-11-13T00:58:47.802Z,5.86
2022-11-13T01:04:08.152Z,5.78
2022-11-13T01:09:28.392Z,5.67
2022-11-13T01:14:49.060Z,5.61
2022-11-13T01:20:09.825Z,5.60
2022-11-13T01:25:31.027Z,5.47
2022-11-13T01:30:50.968Z,5.39
2022-11-13T01:36:20.620Z,5.40
2022-11-13T01:41:41.161Z,5.17
2022-11-13T01:47:03.446Z,5.08
2022-11-13T01:52:34.255Z,5.07
2022-11-13T01:57:54.859Z,5.09
2022-11-13T02:03:15.284Z,5.09
2022-11-13T02:08:35.635Z,5.02
2022-11-13T02:13:55.935Z,4.89
2022-11-13T02:19:24.079Z,4.87
2022-11-13T02:24:49.847Z,4.77
2022-11-13T02:30:23.583Z,4.65
2022-11-13T02:35:45.909Z,4.61
2022-11-13T02:41:06.344Z,4.49
2022-11-13T02:46:26.531Z,4.41
2022-11-13T02:51:46.961Z,4.43
2022-11-13T02:57:07.038Z,4.50
2022-11-13T03:02:28.323Z,4.45
2022-11-13T03:07:48.779Z,4.38
2022-11-13T03:13:08.967Z,4.36
2022-11-13T03:18:29.581Z,4.33
2022-11-13T03:23:49.957Z,4.36
2022-11-13T03:29:10.501Z,4.34
2022-11-13T03:34:30.820Z,4.32
2022-11-13T03:39:51.334Z,4.33
2022-11-13T03:45:11.889Z,4.27
2022-11-13T03:50:31.967Z,4.31
2022-11-13T03:55:52.734Z,4.27
2022-11-13T04:01:12.882Z,4.24
2022-11-13T04:06:33.174Z,4.30
2022-11-13T04:11:53.224Z,4.19
2022-11-13T04:17:13.282Z,4.11
2022-11-13T04:22:33.532Z,4.12
2022-11-13T04:27:53.836Z,4.06
2022-11-13T04:33:14.444Z,3.98
2022-11-13T04:38:34.612Z,4.05
2022-11-13T04:43:54.772Z,4.01
2022-11-13T04:49:15.108Z,4.00
2022-11-13T04:54:35.353Z,3.89
2022-11-13T04:59:55.504Z,3.81
2022-11-13T05:05:16.923Z,3.96
2022-11-13T05:10:37.326Z,4.00
2022-11-13T05:16:07.139Z,3.87
2022-11-13T05:21:27.216Z,3.79
2022-11-13T05:26:47.694Z,3.79
2022-11-13T05:32:08.274Z,3.84
2022-11-13T05:37:29.595Z,3.86
2022-11-13T05:42:50.122Z,3.96
2022-11-13T05:48:10.825Z,3.88
2022-11-13T05:53:33.790Z,3.98
2022-11-13T05:58:55.263Z,4.06
2022-11-13T06:04:15.312Z,3.97
2022-11-13T06:09:35.816Z,3.99
2022-11-13T06:14:56.320Z,4.05
2022-11-13T06:20:16.762Z,4.07
2022-11-13T06:25:37.295Z,4.00
2022-11-13T06:31:05.858Z,3.90
2022-11-13T06:36:28.667Z,3.85
2022-11-13T06:41:49.038Z,3.81
2022-11-13T06:47:09.590Z,3.72
2022-11-13T06:52:30.100Z,3.55
2022-11-13T06:57:50.421Z,3.42
2022-11-13T07:03:19.801Z,3.39
2022-11-13T07:08:41.624Z,3.40
2022-11-13T07:14:01.884Z,3.53
2022-11-13T07:19:22.042Z,3.65
2022-11-13T07:24:42.626Z,3.58
2022-11-13T07:30:06.919Z,3.76
2022-11-13T07:35:27.228Z,3.70
2022-11-13T07:40:47.709Z,3.75
2022-11-13T07:46:08.199Z,3.92
2022-11-13T07:51:28.615Z,4.09
2022-11-13T07:56:49.296Z,4.20
2022-11-13T08:02:15.190Z,4.39
2022-11-13T08:07:35.241Z,4.54
2022-11-13T08:13:03.756Z,4.68
2022-11-13T08:18:24.296Z,4.77
2022-11-13T08:23:44.765Z,4.87
2022-11-13T08:29:04.996Z,4.92
2022-11-13T08:34:25.177Z,4.96
2022-11-13T08:39:45.601Z,5.57
2022-11-13T08:45:06.721Z,5.88
2022-11-13T08:50:28.992Z,5.72
2022-11-13T08:55:49.664Z,5.73
2022-11-13T09:01:10.426Z,5.87
2022-11-13T09:06:30.955Z,5.97
2022-11-13T09:11:51.096Z,6.06
2022-11-13T09:17:11.150Z,6.19
2022-11-13T09:22:31.712Z,6.41
2022-11-13T09:27:57.140Z,6.59
2022-11-13T09:33:17.560Z,6.75
2022-11-13T09:38:38.753Z,6.94
2022-11-13T09:44:03.365Z,7.12
2022-11-13T09:49:34.434Z,7.30
2022-11-13T09:54:54.445Z,7.50
2022-11-13T10:00:22.513Z,7.65
2022-11-13T10:05:54.892Z,7.78
2022-11-13T10:11:35.708Z,7.92
2022-11-13T10:17:02.797Z,8.11
2022-11-13T10:22:39.318Z,8.31
2022-11-13T10:28:15.882Z,8.47
2022-11-13T10:33:42.126Z,8.71
2022-11-13T10:39:06.629Z,9.02
2022-11-13T10:44:33.733Z,9.30
2022-11-13T10:49:56.086Z,9.60
2022-11-13T10:55:25.104Z,9.86
2022-11-13T11:00:50.553Z,10.05
2022-11-13T11:06:11.747Z,10.28
2022-11-13T11:11:50.097Z,10.51
2022-11-13T11:17:14.126Z,10.67
2022-11-13T11:22:38.520Z,10.82
2022-11-13T11:28:07.765Z,10.99
2022-11-13T11:33:47.471Z,11.22
2022-11-13T11:39:19.335Z,11.30
2022-11-13T11:44:48.383Z,11.43
2022-11-13T11:50:17.825Z,11.64
2022-11-13T11:55:47.677Z,11.76
2022-11-13T12:01:37.994Z,11.89
2022-11-13T12:07:15.305Z,12.00
2022-11-13T12:12:38.724Z,12.07
2022-11-13T12:18:27.005Z,12.24
2022-11-13T12:23:58.739Z,12.46
2022-11-13T12:29:43.425Z,12.78
2022-11-13T12:35:19.569Z,12.98
2022-11-13T12:40:48.693Z,13.13
2022-11-13T12:46:12.941Z,13.34
2022-11-13T12:51:40.823Z,13.53
2022-11-13T12:57:13.164Z,13.46
2022-11-13T13:02:47.076Z,13.62
2022-11-13T13:08:10.280Z,13.53
2022-11-13T13:14:13.332Z,13.46
2022-11-13T13:19:35.318Z,13.37
2022-11-13T13:25:02.117Z,13.41
2022-11-13T13:30:27.616Z,13.19
2022-11-13T13:36:09.037Z,13.10
2022-11-13T13:41:53.429Z,12.93
2022-11-13T13:47:22.590Z,12.86
2022-11-13T13:52:44.024Z,12.82
2022-11-13T13:58:09.785Z,12.80
2022-11-13T14:03:30.375Z,12.72
2022-11-13T14:08:50.476Z,12.65
2022-11-13T14:14:17.697Z,12.60
2022-11-13T14:19:38.989Z,12.52
2022-11-13T14:25:01.406Z,12.45
2022-11-13T14:30:24.463Z,12.41
2022-11-13T14:35:52.892Z,12.26
2022-11-13T14:41:23.223Z,12.13
2022-11-13T14:46:47.489Z,11.98
2022-11-13T14:52:20.922Z,11.69
2022-11-13T14:57:50.713Z,11.44
2022-11-13T15:03:10.907Z,11.32
2022-11-13T15:08:31.359Z,11.31
2022-11-13T15:13:52.628Z,11.22
2022-11-13T15:19:17.250Z,11.02
2022-11-13T15:24:37.630Z,10.87
2022-11-13T15:29:58.029Z,10.67
2022-11-13T15:35:19.049Z,10.38
2022-11-13T15:40:39.617Z,10.15
2022-11-13T15:45:59.873Z,9.99
2022-11-13T15:51:28.189Z,9.86
2022-11-13T15:56:48.620Z,9.56
2022-11-13T16:02:09.752Z,9.35
2022-11-13T16:07:31.573Z,9.22
2022-11-13T16:12:52.661Z,9.00
2022-11-13T16:18:24.421Z,8.81
2022-11-13T16:23:44.927Z,8.66
2022-11-13T16:29:18.453Z,8.49
2022-11-13T16:34:39.442Z,8.37
2022-11-13T16:39:59.892Z,8.33
2022-11-13T16:45:21.279Z,8.32
2022-11-13T16:50:42.461Z,8.28
2022-11-13T16:56:13.116Z,8.10
2022-11-13T17:01:33.492Z,7.81
2022-11-13T17:06:56.802Z,7.54
2022-11-13T17:12:21.879Z,7.57
2022-11-13T17:17:43.636Z,7.41
2022-11-13T17:23:04.113Z,7.38
2022-11-13T17:28:24.607Z,7.39
2022-11-13T17:33:45.030Z,7.31
2022-11-13T17:39:05.515Z,7.07
2022-11-13T17:44:25.615Z,7.09
2022-11-13T17:49:46.282Z,7.15
2022-11-13T17:55:07.645Z,7.19
2022-11-13T18:00:28.012Z,7.29
2022-11-13T18:05:48.260Z,7.31
2022-11-13T18:11:24.470Z,7.17
2022-11-13T18:16:45.446Z,7.12
2022-11-13T18:22:06.436Z,7.03
2022-11-13T18:27:26.576Z,7.01
2022-11-13T18:32:46.758Z,6.98
2022-11-13T18:38:08.229Z,7.03
2022-11-13T18:43:28.663Z,7.08
2022-11-13T18:48:49.693Z,7.10
2022-11-13T18:54:11.964Z,7.11
2022-11-13T18:59:33.101Z,7.00
2022-11-13T19:04:53.465Z,6.91
2022-11-13T19:10:16.049Z,6.86
2022-11-13T19:15:37.915Z,6.73
2022-11-13T19:20:58.778Z,6.70
2022-11-13T19:26:19.343Z,6.70
2022-11-13T19:31:39.952Z,6.41
2022-11-13T19:37:00.429Z,6.40
2022-11-13T19:42:21.569Z,6.40
2022-11-13T19:47:41.917Z,6.16
2022-11-13T19:53:02.178Z,5.97
2022-11-13T19:58:22.414Z,5.89
2022-11-13T20:03:43.305Z,5.70
2022-11-13T20:09:04.352Z,5.68
2022-11-13T20:14:24.454Z,5.70
2022-11-13T20:19:44.742Z,5.69
2022-11-13T20:25:05.293Z,5.67
2022-11-13T20:30:25.548Z,5.55
2022-11-13T20:35:55.227Z,5.58
2022-11-13T20:41:15.691Z,5.50
2022-11-13T20:46:36.095Z,5.44
2022-11-13T20:51:57.411Z,5.40
2022-11-13T20:57:21.185Z,5.34
2022-11-13T21:02:42.111Z,5.21
2022-11-13T21:08:02.523Z,5.16
2022-11-13T21:13:22.765Z,5.19
2022-11-13T21:18:42.895Z,5.09
2022-11-13T21:24:03.482Z,5.07
2022-11-13T21:29:23.865Z,5.01
2022-11-13T21:34:46.390Z,4.97
2022-11-13T21:40:07.802Z,4.78
2022-11-13T21:45:28.028Z,4.76
2022-11-13T21:50:48.358Z,4.73
2022-11-13T21:56:14.257Z,4.58
2022-11-13T22:01:38.631Z,4.47
2022-11-13T22:06:59.108Z,4.49
2022-11-13T22:12:19.815Z,4.57
2022-11-13T22:17:41.216Z,4.47
2022-11-13T22:23:05.390Z,4.48
2022-11-13T22:28:25.449Z,4.43
2022-11-13T22:33:48.954Z,4.44
2022-11-13T22:39:11.786Z,4.46
2022-11-13T22:44:54.392Z,4.28
2022-11-13T22:50:12.599Z,4.27
2022-11-13T22:55:33.007Z,4.23
2022-11-13T23:00:53.328Z,4.25
2022-11-13T23:06:17.840Z,4.09
2022-11-13T23:11:40.300Z,3.88
2022-11-13T23:17:00.709Z,3.89
2022-11-13T23:22:21.393Z,4.03
2022-11-13T23:27:41.627Z,4.15
2022-11-13T23:33:02.045Z,4.34
2022-11-13T23:38:22.606Z,4.47
2022-11-13T23:49:23.165Z,4.02
2022-11-13T23:54:44.045Z,4.06
